sensor_id;sensor_type;location;lat;lon;timestamp;P1;durP1;ratioP1;P2;durP2;ratioP2
58137;SDS011;43955;47.362;18.930;2024-03-17T00:01:19;3.20;;;1.05;;
58137;SDS011;43955;47.362;18.930;2024-03-17T00:03:45;3.30;;;1.05;;
58137;SDS011;43955;47.362;18.930;2024-03-17T00:06:12;1.20;;;0.60;;
58137;SDS011;43955;47.362;18.930;2024-03-17T00:08:38;1.75;;;0.90;;
58137;SDS011;43955;47.362;18.930;2024-03-17T00:11:05;1.73;;;1.02;;
58137;SDS011;43955;47.362;18.930;2024-03-17T00:13:31;2.55;;;1.10;;
58137;SDS011;43955;47.362;18.930;2024-03-17T00:15:57;2.00;;;0.80;;
58137;SDS011;43955;47.362;18.930;2024-03-17T00:18:23;1.80;;;0.80;;
58137;SDS011;43955;47.362;18.930;2024-03-17T00:20:51;2.30;;;0.95;;
58137;SDS011;43955;47.362;18.930;2024-03-17T00:23:17;1.67;;;0.82;;
58137;SDS011;43955;47.362;18.930;2024-03-17T00:25:44;2.00;;;0.80;;
58137;SDS011;43955;47.362;18.930;2024-03-17T00:28:10;2.12;;;1.02;;
58137;SDS011;43955;47.362;18.930;2024-03-17T00:30:38;3.97;;;1.20;;
58137;SDS011;43955;47.362;18.930;2024-03-17T00:33:04;1.58;;;0.82;;
58137;SDS011;43955;47.362;18.930;2024-03-17T00:35:30;1.75;;;0.90;;
58137;SDS011;43955;47.362;18.930;2024-03-17T00:37:56;2.72;;;0.88;;
58137;SDS011;43955;47.362;18.930;2024-03-17T00:40:24;2.65;;;1.10;;
58137;SDS011;43955;47.362;18.930;2024-03-17T00:42:50;2.08;;;1.00;;
58137;SDS011;43955;47.362;18.930;2024-03-17T00:45:16;1.27;;;0.70;;
58137;SDS011;43955;47.362;18.930;2024-03-17T00:47:47;2.20;;;1.17;;
58137;SDS011;43955;47.362;18.930;2024-03-17T00:50:15;3.45;;;1.20;;
58137;SDS011;43955;47.362;18.930;2024-03-17T00:52:41;3.40;;;0.82;;
58137;SDS011;43955;47.362;18.930;2024-03-17T00:55:10;1.30;;;0.73;;
58137;SDS011;43955;47.362;18.930;2024-03-17T00:57:36;2.90;;;1.25;;
58137;SDS011;43955;47.362;18.930;2024-03-17T01:00:04;2.50;;;1.23;;
58137;SDS011;43955;47.362;18.930;2024-03-17T01:02:32;3.30;;;1.27;;
58137;SDS011;43955;47.362;18.930;2024-03-17T01:04:58;2.85;;;1.20;;
58137;SDS011;43955;47.362;18.930;2024-03-17T01:07:25;3.20;;;1.15;;
58137;SDS011;43955;47.362;18.930;2024-03-17T01:09:51;1.90;;;0.90;;
58137;SDS011;43955;47.362;18.930;2024-03-17T01:12:18;2.10;;;1.20;;
58137;SDS011;43955;47.362;18.930;2024-03-17T01:14:44;2.33;;;1.40;;
58137;SDS011;43955;47.362;18.930;2024-03-17T01:17:12;3.45;;;1.20;;
58137;SDS011;43955;47.362;18.930;2024-03-17T01:19:38;2.60;;;1.05;;
58137;SDS011;43955;47.362;18.930;2024-03-17T01:22:04;3.45;;;1.45;;
58137;SDS011;43955;47.362;18.930;2024-03-17T01:24:30;3.55;;;1.27;;
58137;SDS011;43955;47.362;18.930;2024-03-17T01:26:58;2.45;;;1.30;;
58137;SDS011;43955;47.362;18.930;2024-03-17T01:29:27;2.92;;;1.20;;
58137;SDS011;43955;47.362;18.930;2024-03-17T01:31:54;3.08;;;1.17;;
58137;SDS011;43955;47.362;18.930;2024-03-17T01:34:22;2.12;;;1.33;;
58137;SDS011;43955;47.362;18.930;2024-03-17T01:36:48;3.00;;;1.45;;
58137;SDS011;43955;47.362;18.930;2024-03-17T01:39:14;3.00;;;1.90;;
58137;SDS011;43955;47.362;18.930;2024-03-17T01:41:41;2.35;;;1.30;;
58137;SDS011;43955;47.362;18.930;2024-03-17T01:44:08;2.47;;;1.62;;
58137;SDS011;43955;47.362;18.930;2024-03-17T01:46:48;4.65;;;1.60;;
58137;SDS011;43955;47.362;18.930;2024-03-17T01:49:16;2.83;;;1.52;;
58137;SDS011;43955;47.362;18.930;2024-03-17T01:51:43;2.67;;;1.30;;
58137;SDS011;43955;47.362;18.930;2024-03-17T01:54:11;2.33;;;1.42;;
58137;SDS011;43955;47.362;18.930;2024-03-17T01:56:39;2.85;;;1.30;;
58137;SDS011;43955;47.362;18.930;2024-03-17T01:59:12;2.60;;;1.27;;
58137;SDS011;43955;47.362;18.930;2024-03-17T02:01:40;3.10;;;1.37;;
58137;SDS011;43955;47.362;18.930;2024-03-17T02:04:07;3.47;;;1.40;;
58137;SDS011;43955;47.362;18.930;2024-03-17T02:06:33;2.83;;;1.55;;
58137;SDS011;43955;47.362;18.930;2024-03-17T02:08:59;3.75;;;1.60;;
58137;SDS011;43955;47.362;18.930;2024-03-17T02:11:27;4.82;;;1.60;;
58137;SDS011;43955;47.362;18.930;2024-03-17T02:13:54;2.70;;;1.52;;
58137;SDS011;43955;47.362;18.930;2024-03-17T02:16:22;2.80;;;1.60;;
58137;SDS011;43955;47.362;18.930;2024-03-17T02:18:49;4.65;;;1.90;;
58137;SDS011;43955;47.362;18.930;2024-03-17T02:21:20;3.67;;;1.65;;
58137;SDS011;43955;47.362;18.930;2024-03-17T02:23:51;2.70;;;1.40;;
58137;SDS011;43955;47.362;18.930;2024-03-17T02:26:17;3.00;;;1.70;;
58137;SDS011;43955;47.362;18.930;2024-03-17T02:28:46;4.03;;;2.33;;
58137;SDS011;43955;47.362;18.930;2024-03-17T02:31:14;5.20;;;2.03;;
58137;SDS011;43955;47.362;18.930;2024-03-17T02:33:41;4.32;;;1.87;;
58137;SDS011;43955;47.362;18.930;2024-03-17T02:36:08;5.82;;;2.00;;
58137;SDS011;43955;47.362;18.930;2024-03-17T02:38:39;4.03;;;1.60;;
58137;SDS011;43955;47.362;18.930;2024-03-17T02:41:24;2.83;;;1.60;;
58137;SDS011;43955;47.362;18.930;2024-03-17T02:43:52;3.47;;;2.12;;
58137;SDS011;43955;47.362;18.930;2024-03-17T02:46:19;4.68;;;1.87;;
58137;SDS011;43955;47.362;18.930;2024-03-17T02:48:46;3.22;;;1.73;;
58137;SDS011;43955;47.362;18.930;2024-03-17T02:51:14;4.18;;;1.70;;
58137;SDS011;43955;47.362;18.930;2024-03-17T02:53:43;3.15;;;1.90;;
58137;SDS011;43955;47.362;18.930;2024-03-17T02:56:11;4.12;;;1.90;;
58137;SDS011;43955;47.362;18.930;2024-03-17T02:58:40;4.28;;;1.70;;
58137;SDS011;43955;47.362;18.930;2024-03-17T03:01:08;3.10;;;1.58;;
58137;SDS011;43955;47.362;18.930;2024-03-17T03:03:38;3.75;;;2.55;;
58137;SDS011;43955;47.362;18.930;2024-03-17T03:06:07;2.67;;;1.48;;
58137;SDS011;43955;47.362;18.930;2024-03-17T03:08:38;4.03;;;2.83;;
58137;SDS011;43955;47.362;18.930;2024-03-17T03:11:08;5.28;;;3.28;;
58137;SDS011;43955;47.362;18.930;2024-03-17T03:13:39;4.25;;;2.28;;
58137;SDS011;43955;47.362;18.930;2024-03-17T03:16:07;3.00;;;1.92;;
58137;SDS011;43955;47.362;18.930;2024-03-17T03:18:35;5.95;;;4.25;;
58137;SDS011;43955;47.362;18.930;2024-03-17T03:21:02;3.53;;;2.33;;
58137;SDS011;43955;47.362;18.930;2024-03-17T03:23:30;4.03;;;2.03;;
58137;SDS011;43955;47.362;18.930;2024-03-17T03:25:57;3.03;;;2.03;;
58137;SDS011;43955;47.362;18.930;2024-03-17T03:28:24;2.40;;;1.50;;
58137;SDS011;43955;47.362;18.930;2024-03-17T03:30:53;2.78;;;1.70;;
58137;SDS011;43955;47.362;18.930;2024-03-17T03:33:21;3.67;;;2.30;;
58137;SDS011;43955;47.362;18.930;2024-03-17T03:35:51;5.70;;;2.40;;
58137;SDS011;43955;47.362;18.930;2024-03-17T03:38:18;2.70;;;1.30;;
58137;SDS011;43955;47.362;18.930;2024-03-17T03:40:46;3.67;;;1.45;;
58137;SDS011;43955;47.362;18.930;2024-03-17T03:43:14;2.87;;;1.42;;
58137;SDS011;43955;47.362;18.930;2024-03-17T03:45:41;2.87;;;1.35;;
58137;SDS011;43955;47.362;18.930;2024-03-17T03:48:08;2.15;;;1.27;;
58137;SDS011;43955;47.362;18.930;2024-03-17T03:50:39;4.05;;;1.37;;
58137;SDS011;43955;47.362;18.930;2024-03-17T03:53:06;1.73;;;1.05;;
58137;SDS011;43955;47.362;18.930;2024-03-17T03:55:35;2.00;;;1.02;;
58137;SDS011;43955;47.362;18.930;2024-03-17T03:58:03;2.28;;;1.20;;
58137;SDS011;43955;47.362;18.930;2024-03-17T04:00:30;3.03;;;1.30;;
58137;SDS011;43955;47.362;18.930;2024-03-17T04:02:58;2.78;;;1.40;;
58137;SDS011;43955;47.362;18.930;2024-03-17T04:05:27;3.80;;;1.92;;
58137;SDS011;43955;47.362;18.930;2024-03-17T04:07:54;2.60;;;1.48;;
58137;SDS011;43955;47.362;18.930;2024-03-17T04:10:21;2.58;;;1.33;;
58137;SDS011;43955;47.362;18.930;2024-03-17T04:12:48;3.45;;;1.62;;
58137;SDS011;43955;47.362;18.930;2024-03-17T04:15:16;2.75;;;1.65;;
58137;SDS011;43955;47.362;18.930;2024-03-17T04:17:42;2.75;;;1.55;;
58137;SDS011;43955;47.362;18.930;2024-03-17T04:20:09;4.22;;;2.10;;
58137;SDS011;43955;47.362;18.930;2024-03-17T04:22:40;3.05;;;1.67;;
58137;SDS011;43955;47.362;18.930;2024-03-17T04:25:09;3.62;;;1.92;;
58137;SDS011;43955;47.362;18.930;2024-03-17T04:27:36;2.85;;;1.67;;
58137;SDS011;43955;47.362;18.930;2024-03-17T04:30:03;3.22;;;1.77;;
58137;SDS011;43955;47.362;18.930;2024-03-17T04:32:32;2.95;;;1.80;;
58137;SDS011;43955;47.362;18.930;2024-03-17T04:34:59;2.60;;;1.65;;
58137;SDS011;43955;47.362;18.930;2024-03-17T04:37:26;2.72;;;1.58;;
58137;SDS011;43955;47.362;18.930;2024-03-17T04:39:52;3.67;;;1.67;;
58137;SDS011;43955;47.362;18.930;2024-03-17T04:42:18;7.55;;;2.00;;
58137;SDS011;43955;47.362;18.930;2024-03-17T04:44:47;3.75;;;1.80;;
58137;SDS011;43955;47.362;18.930;2024-03-17T04:47:14;5.03;;;2.55;;
58137;SDS011;43955;47.362;18.930;2024-03-17T04:49:41;3.40;;;1.85;;
58137;SDS011;43955;47.362;18.930;2024-03-17T04:52:10;2.87;;;1.87;;
58137;SDS011;43955;47.362;18.930;2024-03-17T04:54:37;3.00;;;1.85;;
58137;SDS011;43955;47.362;18.930;2024-03-17T04:57:03;4.37;;;1.80;;
58137;SDS011;43955;47.362;18.930;2024-03-17T04:59:33;3.05;;;1.70;;
58137;SDS011;43955;47.362;18.930;2024-03-17T05:02:00;8.27;;;2.08;;
58137;SDS011;43955;47.362;18.930;2024-03-17T05:04:28;3.25;;;2.20;;
58137;SDS011;43955;47.362;18.930;2024-03-17T05:06:54;3.78;;;2.15;;
58137;SDS011;43955;47.362;18.930;2024-03-17T05:09:21;3.53;;;1.85;;
58137;SDS011;43955;47.362;18.930;2024-03-17T05:11:47;4.87;;;2.12;;
58137;SDS011;43955;47.362;18.930;2024-03-17T05:14:16;3.15;;;2.25;;
58137;SDS011;43955;47.362;18.930;2024-03-17T05:16:47;5.68;;;1.95;;
58137;SDS011;43955;47.362;18.930;2024-03-17T05:19:14;3.78;;;1.73;;
58137;SDS011;43955;47.362;18.930;2024-03-17T05:21:41;4.07;;;1.90;;
58137;SDS011;43955;47.362;18.930;2024-03-17T05:24:07;8.00;;;1.75;;
58137;SDS011;43955;47.362;18.930;2024-03-17T05:26:34;2.83;;;1.52;;
58137;SDS011;43955;47.362;18.930;2024-03-17T05:29:00;3.47;;;1.87;;
58137;SDS011;43955;47.362;18.930;2024-03-17T05:31:27;5.32;;;1.85;;
58137;SDS011;43955;47.362;18.930;2024-03-17T05:33:53;4.45;;;1.85;;
58137;SDS011;43955;47.362;18.930;2024-03-17T05:36:20;4.47;;;2.10;;
58137;SDS011;43955;47.362;18.930;2024-03-17T05:38:47;4.12;;;1.98;;
58137;SDS011;43955;47.362;18.930;2024-03-17T05:41:13;4.12;;;1.58;;
58137;SDS011;43955;47.362;18.930;2024-03-17T05:43:42;3.12;;;2.00;;
58137;SDS011;43955;47.362;18.930;2024-03-17T05:46:09;4.45;;;2.25;;
58137;SDS011;43955;47.362;18.930;2024-03-17T05:48:38;5.18;;;1.90;;
58137;SDS011;43955;47.362;18.930;2024-03-17T05:51:08;2.87;;;1.52;;
58137;SDS011;43955;47.362;18.930;2024-03-17T05:53:37;4.75;;;1.98;;
58137;SDS011;43955;47.362;18.930;2024-03-17T05:56:07;3.10;;;1.75;;
58137;SDS011;43955;47.362;18.930;2024-03-17T05:58:35;6.97;;;2.47;;
58137;SDS011;43955;47.362;18.930;2024-03-17T06:01:02;4.03;;;1.92;;
58137;SDS011;43955;47.362;18.930;2024-03-17T06:03:29;4.00;;;1.40;;
58137;SDS011;43955;47.362;18.930;2024-03-17T06:05:58;3.35;;;1.60;;
58137;SDS011;43955;47.362;18.930;2024-03-17T06:08:25;5.12;;;2.40;;
58137;SDS011;43955;47.362;18.930;2024-03-17T06:10:52;3.12;;;1.70;;
58137;SDS011;43955;47.362;18.930;2024-03-17T06:13:19;2.85;;;1.60;;
58137;SDS011;43955;47.362;18.930;2024-03-17T06:15:45;4.93;;;1.70;;
58137;SDS011;43955;47.362;18.930;2024-03-17T06:18:15;3.83;;;2.15;;
58137;SDS011;43955;47.362;18.930;2024-03-17T06:20:44;29.75;;;5.10;;
58137;SDS011;43955;47.362;18.930;2024-03-17T06:23:11;3.60;;;1.90;;
58137;SDS011;43955;47.362;18.930;2024-03-17T06:25:42;2.83;;;1.62;;
58137;SDS011;43955;47.362;18.930;2024-03-17T06:28:13;4.10;;;1.80;;
58137;SDS011;43955;47.362;18.930;2024-03-17T06:30:42;8.20;;;1.90;;
58137;SDS011;43955;47.362;18.930;2024-03-17T06:33:11;2.83;;;1.52;;
58137;SDS011;43955;47.362;18.930;2024-03-17T06:35:39;3.80;;;1.65;;
58137;SDS011;43955;47.362;18.930;2024-03-17T06:38:06;4.18;;;1.65;;
58137;SDS011;43955;47.362;18.930;2024-03-17T06:40:36;4.82;;;2.00;;
58137;SDS011;43955;47.362;18.930;2024-03-17T06:43:03;4.07;;;1.80;;
58137;SDS011;43955;47.362;18.930;2024-03-17T06:45:30;7.12;;;2.42;;
58137;SDS011;43955;47.362;18.930;2024-03-17T06:47:57;3.70;;;1.80;;
58137;SDS011;43955;47.362;18.930;2024-03-17T06:50:25;3.60;;;1.85;;
58137;SDS011;43955;47.362;18.930;2024-03-17T06:52:58;2.47;;;1.25;;
58137;SDS011;43955;47.362;18.930;2024-03-17T06:55:26;4.62;;;1.70;;
58137;SDS011;43955;47.362;18.930;2024-03-17T06:57:55;5.68;;;2.30;;
58137;SDS011;43955;47.362;18.930;2024-03-17T07:00:21;6.45;;;2.15;;
58137;SDS011;43955;47.362;18.930;2024-03-17T07:02:50;3.92;;;2.15;;
58137;SDS011;43955;47.362;18.930;2024-03-17T07:05:17;3.97;;;1.87;;
58137;SDS011;43955;47.362;18.930;2024-03-17T07:07:44;2.95;;;1.33;;
58137;SDS011;43955;47.362;18.930;2024-03-17T07:10:10;2.83;;;1.52;;
58137;SDS011;43955;47.362;18.930;2024-03-17T07:12:38;2.30;;;1.50;;
58137;SDS011;43955;47.362;18.930;2024-03-17T07:15:05;3.47;;;1.70;;
58137;SDS011;43955;47.362;18.930;2024-03-17T07:17:37;4.40;;;1.75;;
58137;SDS011;43955;47.362;18.930;2024-03-17T07:20:03;5.18;;;1.60;;
58137;SDS011;43955;47.362;18.930;2024-03-17T07:22:34;4.45;;;1.40;;
58137;SDS011;43955;47.362;18.930;2024-03-17T07:25:00;2.42;;;1.33;;
58137;SDS011;43955;47.362;18.930;2024-03-17T07:27:30;2.90;;;1.50;;
58137;SDS011;43955;47.362;18.930;2024-03-17T07:29:59;2.62;;;1.50;;
58137;SDS011;43955;47.362;18.930;2024-03-17T07:32:25;2.95;;;1.45;;
58137;SDS011;43955;47.362;18.930;2024-03-17T07:34:51;3.92;;;1.77;;
58137;SDS011;43955;47.362;18.930;2024-03-17T07:37:20;5.20;;;1.50;;
58137;SDS011;43955;47.362;18.930;2024-03-17T07:39:46;4.62;;;1.30;;
58137;SDS011;43955;47.362;18.930;2024-03-17T07:42:15;4.93;;;1.30;;
58137;SDS011;43955;47.362;18.930;2024-03-17T07:44:43;5.28;;;1.60;;
58137;SDS011;43955;47.362;18.930;2024-03-17T07:47:10;3.17;;;1.12;;
58137;SDS011;43955;47.362;18.930;2024-03-17T07:49:39;3.95;;;1.30;;
58137;SDS011;43955;47.362;18.930;2024-03-17T07:52:05;3.67;;;1.58;;
58137;SDS011;43955;47.362;18.930;2024-03-17T07:54:32;7.12;;;1.35;;
58137;SDS011;43955;47.362;18.930;2024-03-17T07:57:00;4.65;;;2.20;;
58137;SDS011;43955;47.362;18.930;2024-03-17T07:59:29;4.00;;;1.62;;
58137;SDS011;43955;47.362;18.930;2024-03-17T08:01:56;3.33;;;1.30;;
58137;SDS011;43955;47.362;18.930;2024-03-17T08:04:24;5.78;;;1.20;;
58137;SDS011;43955;47.362;18.930;2024-03-17T08:06:51;5.53;;;1.20;;
58137;SDS011;43955;47.362;18.930;2024-03-17T08:09:19;5.10;;;1.33;;
58137;SDS011;43955;47.362;18.930;2024-03-17T08:11:46;3.28;;;1.50;;
58137;SDS011;43955;47.362;18.930;2024-03-17T08:14:14;5.62;;;1.30;;
58137;SDS011;43955;47.362;18.930;2024-03-17T08:16:43;4.80;;;1.75;;
58137;SDS011;43955;47.362;18.930;2024-03-17T08:19:10;17.33;;;2.50;;
58137;SDS011;43955;47.362;18.930;2024-03-17T08:21:36;3.70;;;1.58;;
58137;SDS011;43955;47.362;18.930;2024-03-17T08:24:02;10.10;;;2.00;;
58137;SDS011;43955;47.362;18.930;2024-03-17T08:26:30;4.35;;;1.20;;
58137;SDS011;43955;47.362;18.930;2024-03-17T08:28:56;4.05;;;1.35;;
58137;SDS011;43955;47.362;18.930;2024-03-17T08:31:23;5.75;;;1.58;;
58137;SDS011;43955;47.362;18.930;2024-03-17T08:33:51;2.78;;;1.23;;
58137;SDS011;43955;47.362;18.930;2024-03-17T08:36:18;4.47;;;1.77;;
58137;SDS011;43955;47.362;18.930;2024-03-17T08:38:45;5.90;;;1.27;;
58137;SDS011;43955;47.362;18.930;2024-03-17T08:41:13;4.20;;;1.48;;
58137;SDS011;43955;47.362;18.930;2024-03-17T08:43:42;6.15;;;1.60;;
58137;SDS011;43955;47.362;18.930;2024-03-17T08:46:10;2.15;;;1.23;;
58137;SDS011;43955;47.362;18.930;2024-03-17T08:48:39;4.20;;;1.55;;
58137;SDS011;43955;47.362;18.930;2024-03-17T08:51:06;4.18;;;1.00;;
58137;SDS011;43955;47.362;18.930;2024-03-17T08:53:33;2.53;;;1.17;;
58137;SDS011;43955;47.362;18.930;2024-03-17T08:56:02;4.82;;;1.33;;
58137;SDS011;43955;47.362;18.930;2024-03-17T08:58:32;7.80;;;1.92;;
58137;SDS011;43955;47.362;18.930;2024-03-17T09:00:58;3.47;;;1.05;;
58137;SDS011;43955;47.362;18.930;2024-03-17T09:03:28;5.07;;;1.37;;
58137;SDS011;43955;47.362;18.930;2024-03-17T09:05:54;4.03;;;1.55;;
58137;SDS011;43955;47.362;18.930;2024-03-17T09:08:24;5.65;;;1.20;;
58137;SDS011;43955;47.362;18.930;2024-03-17T09:10:53;3.37;;;1.67;;
58137;SDS011;43955;47.362;18.930;2024-03-17T09:13:21;4.68;;;1.90;;
58137;SDS011;43955;47.362;18.930;2024-03-17T09:15:59;3.92;;;1.42;;
58137;SDS011;43955;47.362;18.930;2024-03-17T09:18:26;3.65;;;1.10;;
58137;SDS011;43955;47.362;18.930;2024-03-17T09:21:00;3.35;;;0.93;;
58137;SDS011;43955;47.362;18.930;2024-03-17T09:23:27;2.25;;;1.42;;
58137;SDS011;43955;47.362;18.930;2024-03-17T09:25:54;4.07;;;1.10;;
58137;SDS011;43955;47.362;18.930;2024-03-17T09:28:29;3.20;;;1.02;;
58137;SDS011;43955;47.362;18.930;2024-03-17T09:30:56;3.50;;;1.23;;
58137;SDS011;43955;47.362;18.930;2024-03-17T09:33:23;4.50;;;1.17;;
58137;SDS011;43955;47.362;18.930;2024-03-17T09:35:57;2.72;;;1.12;;
58137;SDS011;43955;47.362;18.930;2024-03-17T09:38:29;5.15;;;2.10;;
58137;SDS011;43955;47.362;18.930;2024-03-17T09:41:00;7.07;;;1.48;;
58137;SDS011;43955;47.362;18.930;2024-03-17T09:43:27;4.05;;;1.23;;
58137;SDS011;43955;47.362;18.930;2024-03-17T09:45:54;2.78;;;0.88;;
58137;SDS011;43955;47.362;18.930;2024-03-17T09:48:26;8.98;;;1.40;;
58137;SDS011;43955;47.362;18.930;2024-03-17T09:53:23;2.33;;;0.75;;
58137;SDS011;43955;47.362;18.930;2024-03-17T09:55:51;3.62;;;1.30;;
58137;SDS011;43955;47.362;18.930;2024-03-17T09:58:19;3.20;;;0.85;;
58137;SDS011;43955;47.362;18.930;2024-03-17T10:00:46;2.78;;;0.85;;
58137;SDS011;43955;47.362;18.930;2024-03-17T10:03:15;1.87;;;1.02;;
58137;SDS011;43955;47.362;18.930;2024-03-17T10:06:06;5.93;;;1.40;;
58137;SDS011;43955;47.362;18.930;2024-03-17T10:08:33;4.32;;;1.55;;
58137;SDS011;43955;47.362;18.930;2024-03-17T10:11:02;2.58;;;1.00;;
58137;SDS011;43955;47.362;18.930;2024-03-17T10:13:29;3.30;;;1.12;;
58137;SDS011;43955;47.362;18.930;2024-03-17T10:15:55;4.40;;;1.05;;
58137;SDS011;43955;47.362;18.930;2024-03-17T10:18:24;3.22;;;1.00;;
58137;SDS011;43955;47.362;18.930;2024-03-17T10:20:50;7.22;;;1.55;;
58137;SDS011;43955;47.362;18.930;2024-03-17T10:25:52;3.42;;;1.48;;
58137;SDS011;43955;47.362;18.930;2024-03-17T10:28:18;5.57;;;1.30;;
58137;SDS011;43955;47.362;18.930;2024-03-17T10:30:57;4.55;;;1.67;;
58137;SDS011;43955;47.362;18.930;2024-03-17T10:33:24;6.32;;;1.23;;
58137;SDS011;43955;47.362;18.930;2024-03-17T10:35:53;6.53;;;1.10;;
58137;SDS011;43955;47.362;18.930;2024-03-17T10:38:24;3.47;;;1.08;;
58137;SDS011;43955;47.362;18.930;2024-03-17T10:40:51;2.40;;;1.20;;
58137;SDS011;43955;47.362;18.930;2024-03-17T10:43:18;3.25;;;1.20;;
58137;SDS011;43955;47.362;18.930;2024-03-17T10:45:58;3.22;;;1.00;;
58137;SDS011;43955;47.362;18.930;2024-03-17T10:48:26;2.55;;;1.17;;
58137;SDS011;43955;47.362;18.930;2024-03-17T10:50:58;2.95;;;1.37;;
58137;SDS011;43955;47.362;18.930;2024-03-17T10:53:26;2.10;;;1.12;;
58137;SDS011;43955;47.362;18.930;2024-03-17T10:56:00;7.22;;;1.60;;
58137;SDS011;43955;47.362;18.930;2024-03-17T10:58:36;2.92;;;1.02;;
58137;SDS011;43955;47.362;18.930;2024-03-17T11:01:02;5.32;;;1.40;;
58137;SDS011;43955;47.362;18.930;2024-03-17T11:03:32;5.35;;;1.37;;
58137;SDS011;43955;47.362;18.930;2024-03-17T11:05:59;6.80;;;1.67;;
58137;SDS011;43955;47.362;18.930;2024-03-17T11:08:30;4.72;;;1.23;;
58137;SDS011;43955;47.362;18.930;2024-03-17T11:10:57;4.18;;;1.60;;
58137;SDS011;43955;47.362;18.930;2024-03-17T11:13:30;4.82;;;0.75;;
58137;SDS011;43955;47.362;18.930;2024-03-17T11:15:58;1.73;;;1.00;;
58137;SDS011;43955;47.362;18.930;2024-03-17T11:20:58;3.05;;;1.20;;
58137;SDS011;43955;47.362;18.930;2024-03-17T11:23:34;2.83;;;1.27;;
58137;SDS011;43955;47.362;18.930;2024-03-17T11:26:03;4.20;;;1.42;;
58137;SDS011;43955;47.362;18.930;2024-03-17T11:34:01;3.97;;;0.90;;
58137;SDS011;43955;47.362;18.930;2024-03-17T11:36:35;1.60;;;1.05;;
58137;SDS011;43955;47.362;18.930;2024-03-17T11:39:05;6.90;;;1.05;;
58137;SDS011;43955;47.362;18.930;2024-03-17T11:41:48;2.70;;;0.90;;
58137;SDS011;43955;47.362;18.930;2024-03-17T11:46:51;3.53;;;1.05;;
58137;SDS011;43955;47.362;18.930;2024-03-17T11:49:22;4.57;;;0.95;;
58137;SDS011;43955;47.362;18.930;2024-03-17T11:51:55;3.47;;;1.12;;
58137;SDS011;43955;47.362;18.930;2024-03-17T11:54:23;2.25;;;0.80;;
58137;SDS011;43955;47.362;18.930;2024-03-17T11:56:53;1.87;;;0.77;;
58137;SDS011;43955;47.362;18.930;2024-03-17T11:59:22;2.40;;;0.95;;
58137;SDS011;43955;47.362;18.930;2024-03-17T12:01:49;3.35;;;1.00;;
58137;SDS011;43955;47.362;18.930;2024-03-17T12:04:17;2.65;;;0.82;;
58137;SDS011;43955;47.362;18.930;2024-03-17T12:06:47;2.92;;;0.85;;
58137;SDS011;43955;47.362;18.930;2024-03-17T12:09:25;2.05;;;0.80;;
58137;SDS011;43955;47.362;18.930;2024-03-17T12:12:00;3.28;;;1.17;;
58137;SDS011;43955;47.362;18.930;2024-03-17T12:14:27;5.20;;;1.33;;
58137;SDS011;43955;47.362;18.930;2024-03-17T12:19:40;3.37;;;0.88;;
58137;SDS011;43955;47.362;18.930;2024-03-17T12:22:13;1.58;;;0.70;;
58137;SDS011;43955;47.362;18.930;2024-03-17T12:24:43;11.27;;;0.98;;
58137;SDS011;43955;47.362;18.930;2024-03-17T12:27:09;3.58;;;0.80;;
58137;SDS011;43955;47.362;18.930;2024-03-17T12:29:43;4.82;;;0.90;;
58137;SDS011;43955;47.362;18.930;2024-03-17T12:34:39;1.85;;;1.05;;
58137;SDS011;43955;47.362;18.930;2024-03-17T12:37:07;4.07;;;0.90;;
58137;SDS011;43955;47.362;18.930;2024-03-17T12:39:34;4.10;;;1.12;;
58137;SDS011;43955;47.362;18.930;2024-03-17T12:42:07;7.78;;;1.20;;
58137;SDS011;43955;47.362;18.930;2024-03-17T12:44:37;3.78;;;1.17;;
58137;SDS011;43955;47.362;18.930;2024-03-17T12:47:18;7.20;;;1.20;;
58137;SDS011;43955;47.362;18.930;2024-03-17T12:49:52;2.15;;;0.95;;
58137;SDS011;43955;47.362;18.930;2024-03-17T12:52:22;1.70;;;0.80;;
58137;SDS011;43955;47.362;18.930;2024-03-17T13:01:02;2.22;;;0.82;;
58137;SDS011;43955;47.362;18.930;2024-03-17T13:03:31;2.85;;;0.77;;
58137;SDS011;43955;47.362;18.930;2024-03-17T13:06:01;2.30;;;0.75;;
58137;SDS011;43955;47.362;18.930;2024-03-17T13:08:36;2.15;;;0.85;;
58137;SDS011;43955;47.362;18.930;2024-03-17T13:11:02;4.75;;;0.90;;
58137;SDS011;43955;47.362;18.930;2024-03-17T13:13:35;3.33;;;0.90;;
58137;SDS011;43955;47.362;18.930;2024-03-17T13:16:01;4.28;;;1.00;;
58137;SDS011;43955;47.362;18.930;2024-03-17T13:18:27;4.12;;;0.80;;
58137;SDS011;43955;47.362;18.930;2024-03-17T13:20:53;2.00;;;0.70;;
58137;SDS011;43955;47.362;18.930;2024-03-17T13:23:20;2.47;;;0.80;;
58137;SDS011;43955;47.362;18.930;2024-03-17T13:25:51;2.95;;;1.45;;
58137;SDS011;43955;47.362;18.930;2024-03-17T13:28:19;2.00;;;0.85;;
58137;SDS011;43955;47.362;18.930;2024-03-17T13:30:45;5.43;;;1.10;;
58137;SDS011;43955;47.362;18.930;2024-03-17T13:33:14;5.57;;;0.80;;
58137;SDS011;43955;47.362;18.930;2024-03-17T13:35:41;1.25;;;0.70;;
58137;SDS011;43955;47.362;18.930;2024-03-17T13:38:07;2.40;;;0.80;;
58137;SDS011;43955;47.362;18.930;2024-03-17T13:40:35;5.78;;;1.08;;
58137;SDS011;43955;47.362;18.930;2024-03-17T13:43:02;10.43;;;1.10;;
58137;SDS011;43955;47.362;18.930;2024-03-17T13:45:29;2.62;;;1.33;;
58137;SDS011;43955;47.362;18.930;2024-03-17T13:48:03;4.78;;;0.90;;
58137;SDS011;43955;47.362;18.930;2024-03-17T13:50:39;4.47;;;1.33;;
58137;SDS011;43955;47.362;18.930;2024-03-17T13:53:08;3.58;;;1.00;;
58137;SDS011;43955;47.362;18.930;2024-03-17T13:55:34;4.95;;;1.25;;
58137;SDS011;43955;47.362;18.930;2024-03-17T13:58:01;3.58;;;1.20;;
58137;SDS011;43955;47.362;18.930;2024-03-17T14:00:28;2.90;;;1.20;;
58137;SDS011;43955;47.362;18.930;2024-03-17T14:03:02;3.40;;;1.02;;
58137;SDS011;43955;47.362;18.930;2024-03-17T14:05:29;4.47;;;1.20;;
58137;SDS011;43955;47.362;18.930;2024-03-17T14:07:58;17.77;;;2.35;;
58137;SDS011;43955;47.362;18.930;2024-03-17T14:10:25;4.10;;;1.20;;
58137;SDS011;43955;47.362;18.930;2024-03-17T14:12:52;5.30;;;1.30;;
58137;SDS011;43955;47.362;18.930;2024-03-17T14:15:21;4.93;;;1.00;;
58137;SDS011;43955;47.362;18.930;2024-03-17T14:17:48;2.90;;;0.90;;
58137;SDS011;43955;47.362;18.930;2024-03-17T14:20:16;3.70;;;0.80;;
58137;SDS011;43955;47.362;18.930;2024-03-17T14:22:44;3.70;;;0.88;;
58137;SDS011;43955;47.362;18.930;2024-03-17T14:25:17;3.40;;;0.77;;
58137;SDS011;43955;47.362;18.930;2024-03-17T14:27:44;15.95;;;1.92;;
58137;SDS011;43955;47.362;18.930;2024-03-17T14:30:11;4.07;;;1.17;;
58137;SDS011;43955;47.362;18.930;2024-03-17T14:32:41;2.62;;;0.93;;
58137;SDS011;43955;47.362;18.930;2024-03-17T14:35:09;2.35;;;0.95;;
58137;SDS011;43955;47.362;18.930;2024-03-17T14:37:39;2.72;;;0.90;;
58137;SDS011;43955;47.362;18.930;2024-03-17T14:40:06;4.68;;;0.90;;
58137;SDS011;43955;47.362;18.930;2024-03-17T14:42:40;2.12;;;1.05;;
58137;SDS011;43955;47.362;18.930;2024-03-17T14:45:07;4.82;;;0.98;;
58137;SDS011;43955;47.362;18.930;2024-03-17T14:47:34;4.50;;;0.93;;
58137;SDS011;43955;47.362;18.930;2024-03-17T14:50:03;3.80;;;1.17;;
58137;SDS011;43955;47.362;18.930;2024-03-17T14:52:30;4.18;;;1.20;;
58137;SDS011;43955;47.362;18.930;2024-03-17T14:54:57;2.90;;;0.95;;
58137;SDS011;43955;47.362;18.930;2024-03-17T14:57:23;4.95;;;1.30;;
58137;SDS011;43955;47.362;18.930;2024-03-17T14:59:49;4.10;;;1.10;;
58137;SDS011;43955;47.362;18.930;2024-03-17T15:02:15;2.22;;;1.00;;
58137;SDS011;43955;47.362;18.930;2024-03-17T15:04:41;2.28;;;0.70;;
58137;SDS011;43955;47.362;18.930;2024-03-17T15:07:08;3.10;;;1.17;;